• Join FlightAware (Why Join?)
  • Login
  • US Flag 
Gobble Gobble! 
02:44PM EST


 

Airport Tracker/Info


-or-


 

Live Flight TrackerFlight Track Log ✈ USC491 ✈ 30-Jan-2014 ✈ KHOU - KADS

Flight Track Log - Related Links

Times and Time Zones

All times are in EST time to prevent confusion due to time zone crossing. See the USC491 flight status page for this flight to view local times or setup timezone preferences in your user account.

Time Position Orientation Groundspeed Altitude Reporting Facility
EST Latitude Longitude Course Direction KTS MPH feet Rate Location/Type
10:52PM 29.6433 -95.2833 341° North 93 107 500  Level Houston Center
10:53PM 29.6369 -95.3058 252° West 86 99 1,500 1,140 Climbing Houston Center
10:54PM 29.6333 -95.3189 252° West 85 98 2,300 1,260 Climbing Houston Center
10:54PM 29.6308 -95.3306 256° West 78 90 2,800 660 Climbing Houston Center
10:55PM 29.6267 -95.3444 251° West 84 97 3,000 180 Climbing Houston Center
10:55PM 29.6211 -95.3606 248° West 109 125 3,000  Level Houston Center
10:56PM 29.6178 -95.3844 261° West 121 139 3,000 600 Level Houston Center
10:56PM 29.6208 -95.4039 280° West 139 160 3,600 1,440 Climbing Houston Center
10:57PM 29.6269 -95.4261 288° West 113 130 4,500 1,020 Climbing Houston Center
10:57PM 29.6281 -95.4367 277° West 92 106 4,800 480 Climbing Houston Center
10:58PM 29.6816 -95.2932 341° North  Level FlightAware Approximate
10:58PM 29.6311 -95.4567 280° West 99 114 5,000  Level Houston Center
10:58PM 29.6314 -95.4747 271° West 133 153 5,300 660 Climbing Houston Center
10:59PM 29.6336 -95.4939 278° West 112 129 5,700 480 Climbing Houston Center
10:59PM 29.6328 -95.5131 267° West 108 124 5,900 240 Climbing Houston Center
11:00PM 29.6336 -95.5306 273° West 114 131 6,000  Climbing Houston Center
11:00PM 29.6342 -95.5514 272° West 149 171 5,900 -120 Descending Houston Center
11:01PM 29.6497 -95.5714 312° West 149 171 5,900 60 Level Houston Center
11:01PM 29.6664 -95.5836 327° Northwest 158 182 6,000  Climbing Houston Center
11:02PM 29.6861 -95.5992 326° Northwest 157 181 5,900  Descending Houston Center
11:02PM 29.7044 -95.6103 332° Northwest 162 186 6,000  Climbing Houston Center
11:03PM 29.7300 -95.6094 North 166 191 5,900 -120 Descending Houston Center
11:03PM 29.7531 -95.6117 355° North 169 194 5,900  Level Houston Center
11:04PM 29.7769 -95.6131 357° North 168 193 5,900 60 Level Houston Center
11:04PM 29.7953 -95.6139 358° North 169 194 6,000 60 Climbing Houston Center
11:05PM 29.8236 -95.6147 359° North 168 193 6,000  Level Houston Center
11:05PM 29.8417 -95.6181 351° North 167 192 6,000  Level Houston Center
11:06PM 29.8706 -95.6189 359° North 168 193 6,000  Level Houston Center
11:06PM 29.8883 -95.6222 351° North 168 193 6,000  Level Houston Center
11:07PM 29.9172 -95.6247 356° North 168 193 6,000  Level Houston Center
11:07PM 29.9350 -95.6289 349° North 165 190 6,000 -120 Level Houston Center
11:08PM 29.9631 -95.6350 349° North 168 193 5,900  Descending Houston Center
11:08PM 29.9758 -95.6386 346° North 168 193 6,000 60 Climbing Houston Center
11:09PM 30.0094 -95.6408 357° North 167 192 6,000  Level Houston Center
11:09PM 30.0222 -95.6428 352° North 168 193 6,000  Level Houston Center
11:10PM 30.0569 -95.6436 359° North 170 196 6,000  Level Houston Center
11:10PM 30.0708 -95.6442 358° North 168 193 6,000  Level Houston Center
11:11PM 30.1131 -95.6467 357° North 169 194 6,000  Level Houston Center
11:11PM 30.1236 -95.6475 356° North 167 192 6,000  Level Houston Center
11:12PM 30.1586 -95.6497 357° North 165 190 6,000 -120 Level Houston Center
11:12PM 30.1700 -95.6517 352° North 165 190 5,900  Descending Houston Center
11:13PM 30.2047 -95.6517 360° North 166 191 6,000  Climbing Houston Center
11:13PM 30.2122 -95.6542 344° North 167 192 5,900 -120 Descending Houston Center
11:14PM 30.2586 -95.6558 358° North 165 190 5,900  Level Houston Center
11:15PM 30.2972 -95.6564 359° North 164 189 6,000  Climbing Houston Center
11:15PM 30.3053 -95.6600 339° North 167 192 5,900  Descending Houston Center
11:16PM 30.3428 -95.6647 354° North 164 189 6,000  Climbing Houston Center
11:16PM 30.3564 -95.6686 346° North 164 189 5,900  Descending Houston Center
11:17PM 30.3878 -95.6736 352° North 165 190 6,000  Climbing Houston Center
11:17PM 30.3969 -95.6758 348° North 164 189 5,900  Descending Houston Center
11:18PM 30.4314 -95.6869 344° North 163 188 6,000  Climbing Houston Center
11:18PM 30.4400 -95.6900 343° North 162 186 5,900 60 Descending Houston Center
11:19PM 30.4742 -95.6994 347° North 160 184 6,100 60 Climbing Houston Center
11:19PM 30.4853 -95.7017 350° North 158 182 6,000  Descending Houston Center
11:20PM 30.5175 -95.7125 344° North 161 185 6,100 -120 Climbing Houston Center
11:20PM 30.5306 -95.7158 348° North 162 186 5,900 -120 Descending Houston Center
11:21PM 30.5628 -95.7217 351° North 163 188 6,000  Climbing Houston Center
11:21PM 30.5756 -95.7250 347° North 166 191 5,900  Descending Houston Center
11:22PM 30.6075 -95.7342 346° North 165 190 6,000  Climbing Houston Center
11:22PM 30.6206 -95.7367 351° North 164 189 5,900  Descending Houston Center
11:23PM 30.6511 -95.7486 341° North 163 188 6,000  Climbing Houston Center
11:23PM 30.6622 -95.7561 330° Northwest 163 188 5,900  Descending Houston Center
11:24PM 30.6942 -95.7681 342° North 162 186 6,000  Climbing Houston Center
11:25PM 30.7369 -95.7864 340° North 163 188 6,000  Level Houston Center
11:26PM 30.7814 -95.8025 343° North 165 190 6,000  Level Houston Center
11:27PM 30.8242 -95.8197 341° North 161 185 6,100  Climbing Houston Center
11:28PM 30.8758 -95.8403 341° North 163 188 6,000 -60 Descending Houston Center
11:29PM 30.9181 -95.8569 341° North 161 185 6,000  Level Houston Center
11:30PM 30.9600 -95.8744 340° North 159 183 6,000  Level Houston Center
11:31PM 31.0025 -95.8922 340° North 159 183 6,000  Level Houston Center
11:32PM 31.0431 -95.9142 335° Northwest 160 184 6,000  Level Houston Center
11:33PM 31.0814 -95.9392 331° Northwest 158 182 6,000  Level Houston Center
11:34PM 31.1206 -95.9642 331° Northwest 159 183 6,000  Level Houston Center
11:35PM 31.1619 -95.9781 344° North 169 194 6,000  Level Houston Center
11:36PM 31.2092 -95.9836 354° North 169 194 6,000  Level Houston Center
11:37PM 31.2572 -95.9847 359° North 171 197 6,000  Level Houston Center
11:38PM 31.3008 -95.9931 351° North 165 190 6,000  Level Houston Center
11:39PM 31.3464 -96.0078 345° North 166 191 6,100  Climbing Houston Center
11:40PM 31.3897 -96.0222 344° North 165 190 6,100  Level Houston Center
11:41PM 31.4342 -96.0356 346° North 163 188 6,100  Level Houston Center
11:42PM 31.4794 -96.0431 352° North 164 189 6,100  Level Houston Center
11:44PM 31.5278 -96.0419 North 171 197 6,100  Level Houston Center
11:45PM 31.5756 -96.0358 North 173 199 6,100 -60 Level Houston Center
11:45PM 31.6308 -96.0319 North 174 200 6,000 -60 Descending Fort Worth Center
11:47PM 31.6786 -96.0317 360° North 171 197 6,000 -60 Level Fort Worth Center
11:48PM 31.7247 -96.0367 355° North 168 193 5,900  Descending Fort Worth Center
11:49PM 31.7708 -96.0481 348° North 167 192 6,000  Climbing Fort Worth Center
11:50PM 31.8119 -96.0661 340° North 159 183 6,000  Level Fort Worth Center
11:51PM 31.8533 -96.0853 339° North 159 183 6,000 -60 Level Fort Worth Center
11:52PM 31.8958 -96.1058 338° Northwest 162 186 5,900 -60 Descending Fort Worth Center
11:53PM 31.9356 -96.1297 333° Northwest 159 183 5,900  Level Fort Worth Center
11:54PM 31.9758 -96.1572 330° Northwest 158 182 6,000  Climbing Fort Worth Center
11:55PM 32.0197 -96.1706 346° North 162 186 6,000  Level Fort Worth Center
11:56PM 32.0661 -96.1808 349° North 168 193 6,000  Level Fort Worth Center
11:57PM 32.1103 -96.1914 349° North 164 189 6,000  Level Fort Worth Center
11:58PM 32.1567 -96.2022 349° North 168 193 6,000  Level Fort Worth Center
11:59PM 32.2017 -96.2164 345° North 167 192 6,000 -60 Level Fort Worth Center
12:00AM 32.2547 -96.2411 338° Northwest 163 188 5,900 -60 Descending Fort Worth Center
12:01AM 32.3019 -96.2747 329° Northwest 161 185 5,900  Level Fort Worth Center
12:02AM 32.3403 -96.3017 329° Northwest 161 185 5,900  Level Fort Worth Center
12:03AM 32.3803 -96.3275 331° Northwest 162 186 5,900  Level Fort Worth Center
12:04AM 32.4242 -96.3539 333° Northwest 165 190 5,900  Level Fort Worth Center
12:05AM 32.4667 -96.3736 339° North 166 191 5,900  Level Fort Worth Center
12:06AM 32.5081 -96.3950 336° Northwest 164 189 5,900  Level Fort Worth Center
12:07AM 32.5486 -96.4197 333° Northwest 163 188 5,900  Level Fort Worth Center
12:08AM 32.5889 -96.4442 333° Northwest 164 189 5,900 -240 Level Fort Worth Center
12:09AM 32.6281 -96.4739 327° Northwest 166 191 5,500 -540 Descending Fort Worth Center
12:10AM 32.6686 -96.5072 325° Northwest 177 204 4,900 -600 Descending Fort Worth Center
12:11AM 32.7106 -96.5383 328° Northwest 166 191 4,300 -540 Descending Fort Worth Center
12:12AM 32.7544 -96.5606 337° Northwest 169 194 3,900 -180 Descending Fort Worth Center
12:13AM 32.7950 -96.5872 331° Northwest 168 193 4,000  Climbing Fort Worth Center
12:14AM 32.8306 -96.6186 323° Northwest 160 184 3,900 -120 Descending Fort Worth Center
12:15AM 32.8650 -96.6517 321° Northwest 158 182 3,800 -540 Descending Fort Worth Center
12:16AM 32.9019 -96.6897 319° Northwest 174 200 2,900 -900 Descending Fort Worth Center